createdAt,value
2017-06-30T00:00:40.383Z,991.25
2017-06-30T00:01:21.287Z,991.25
2017-06-30T00:02:02.176Z,991.25
2017-06-30T00:02:43.077Z,991.25
2017-06-30T00:03:23.964Z,991.22
2017-06-30T00:04:04.846Z,991.23
2017-06-30T00:04:45.735Z,991.12
2017-06-30T00:05:26.626Z,991.17
2017-06-30T00:06:07.512Z,991.16
2017-06-30T00:06:48.409Z,991.15
2017-06-30T00:07:29.318Z,991.04
2017-06-30T00:08:10.185Z,991.11
2017-06-30T00:08:51.080Z,991.25
2017-06-30T00:09:31.974Z,991.15
2017-06-30T00:10:12.863Z,991.24
2017-06-30T00:10:53.758Z,991.2
2017-06-30T00:11:34.654Z,991.25
2017-06-30T00:12:15.550Z,991.38
2017-06-30T00:12:56.439Z,991.27
2017-06-30T00:13:37.334Z,991.29
2017-06-30T00:14:18.225Z,991.21
2017-06-30T00:14:59.116Z,991.19
2017-06-30T00:15:40.000Z,991.28
2017-06-30T00:16:20.883Z,991.24
2017-06-30T00:17:01.774Z,991.37
2017-06-30T00:17:42.676Z,991.29
2017-06-30T00:18:23.564Z,991.24
2017-06-30T00:19:04.457Z,991.24
2017-06-30T00:19:45.351Z,991.23
2017-06-30T00:20:26.238Z,991.22
2017-06-30T00:21:07.133Z,991.25
2017-06-30T00:21:48.028Z,991.22
2017-06-30T00:22:28.914Z,991.29
2017-06-30T00:23:09.803Z,991.22
2017-06-30T00:23:50.696Z,991.23
2017-06-30T00:24:31.595Z,991.24
2017-06-30T00:25:12.485Z,991.3
2017-06-30T00:25:53.412Z,991.31
2017-06-30T00:26:34.272Z,991.3
2017-06-30T00:27:15.159Z,991.36
2017-06-30T00:27:56.062Z,991.36
2017-06-30T00:28:36.954Z,991.4
2017-06-30T00:29:17.832Z,991.42
2017-06-30T00:29:58.731Z,991.45
2017-06-30T00:30:39.616Z,991.51
2017-06-30T00:31:20.511Z,991.38
2017-06-30T00:32:01.399Z,991.53
2017-06-30T00:32:42.293Z,991.33
2017-06-30T00:33:23.187Z,991.39
2017-06-30T00:34:04.092Z,991.41
2017-06-30T00:34:44.969Z,991.41
2017-06-30T00:35:25.854Z,991.39
2017-06-30T00:36:06.748Z,991.42
2017-06-30T00:36:47.640Z,991.37
2017-06-30T00:37:28.537Z,991.45
2017-06-30T00:38:09.426Z,991.39
2017-06-30T00:38:50.318Z,991.41
2017-06-30T00:39:31.207Z,991.49
2017-06-30T00:40:12.101Z,991.49
2017-06-30T00:40:53.005Z,991.46
2017-06-30T00:41:33.899Z,991.46
2017-06-30T00:42:14.800Z,991.53
2017-06-30T00:42:55.676Z,991.56
2017-06-30T00:43:36.565Z,991.51
2017-06-30T00:44:17.453Z,991.49
2017-06-30T00:44:58.334Z,991.53
2017-06-30T00:45:39.228Z,991.57
2017-06-30T00:46:20.124Z,991.55
2017-06-30T00:47:01.012Z,991.57
2017-06-30T00:47:41.910Z,991.61
2017-06-30T00:48:22.784Z,991.59
2017-06-30T00:49:03.686Z,991.56
2017-06-30T00:49:44.569Z,991.63
2017-06-30T00:50:25.459Z,991.56
2017-06-30T00:51:06.360Z,991.52
2017-06-30T00:51:47.253Z,991.55
2017-06-30T00:52:28.146Z,991.54
2017-06-30T00:53:09.066Z,991.56
2017-06-30T00:53:49.927Z,991.62
2017-06-30T00:54:30.822Z,991.66
2017-06-30T00:55:11.744Z,991.63
2017-06-30T00:55:52.621Z,991.6
2017-06-30T00:56:33.504Z,991.62
2017-06-30T00:57:14.392Z,991.66
2017-06-30T00:57:55.275Z,991.67
2017-06-30T00:58:36.166Z,991.65
2017-06-30T00:59:17.068Z,991.66
2017-06-30T00:59:57.950Z,991.65
2017-06-30T01:00:38.854Z,991.61
2017-06-30T01:01:19.739Z,991.71
2017-06-30T01:02:00.627Z,991.69
2017-06-30T01:02:41.533Z,991.74
2017-06-30T01:03:22.423Z,991.69
2017-06-30T01:04:03.330Z,991.71
2017-06-30T01:04:44.221Z,991.68
2017-06-30T01:05:25.118Z,991.67
2017-06-30T01:06:06.010Z,991.73
2017-06-30T01:06:46.900Z,991.69
2017-06-30T01:07:27.791Z,991.7
2017-06-30T01:08:08.685Z,991.67
2017-06-30T01:08:49.586Z,991.64
2017-06-30T01:09:30.466Z,991.64
2017-06-30T01:10:11.363Z,991.67
2017-06-30T01:12:10.144Z,991.65
2017-06-30T01:12:51.047Z,991.71
2017-06-30T01:13:31.941Z,991.71
2017-06-30T01:14:12.832Z,991.72
2017-06-30T01:14:53.734Z,991.7
2017-06-30T01:15:34.616Z,991.7
2017-06-30T01:16:15.508Z,991.7
2017-06-30T01:16:56.397Z,991.63
2017-06-30T01:17:37.288Z,991.65
2017-06-30T01:18:18.180Z,991.6
2017-06-30T01:18:59.072Z,991.57
2017-06-30T01:19:39.959Z,991.55
2017-06-30T01:20:20.883Z,991.63
2017-06-30T01:21:01.766Z,991.63
2017-06-30T01:21:42.654Z,991.61
2017-06-30T01:22:23.552Z,991.64
2017-06-30T01:23:04.436Z,991.63
2017-06-30T01:23:45.326Z,991.6
2017-06-30T01:24:26.216Z,991.57
2017-06-30T01:25:07.108Z,991.65
2017-06-30T01:25:48.001Z,991.6
2017-06-30T01:26:28.898Z,991.6
2017-06-30T01:27:09.786Z,991.59
2017-06-30T01:27:50.694Z,991.6
2017-06-30T01:28:31.595Z,991.68
2017-06-30T01:29:12.481Z,991.66
2017-06-30T01:29:53.372Z,991.7
2017-06-30T01:30:34.270Z,991.65
2017-06-30T01:31:15.165Z,991.7
2017-06-30T01:31:56.054Z,991.68
2017-06-30T01:32:36.946Z,991.67
2017-06-30T01:33:17.833Z,991.63
2017-06-30T01:33:58.735Z,991.65
2017-06-30T01:34:39.619Z,991.65
2017-06-30T01:35:20.512Z,991.66
2017-06-30T01:36:01.406Z,991.66
2017-06-30T01:36:42.297Z,991.63
2017-06-30T01:37:23.184Z,991.59
2017-06-30T01:38:04.096Z,991.5
2017-06-30T01:38:44.971Z,991.54
2017-06-30T01:39:25.857Z,991.55
2017-06-30T01:40:06.759Z,991.61
2017-06-30T01:40:47.647Z,991.52
2017-06-30T01:41:28.530Z,991.5
2017-06-30T01:42:09.419Z,991.57
2017-06-30T01:42:50.314Z,991.74
2017-06-30T01:43:31.202Z,991.75
2017-06-30T01:44:12.114Z,991.69
2017-06-30T01:44:52.973Z,991.65
2017-06-30T01:45:33.853Z,991.63
2017-06-30T01:46:14.743Z,991.55
2017-06-30T01:46:55.629Z,991.57
2017-06-30T01:47:36.516Z,991.63
2017-06-30T01:48:17.417Z,991.59
2017-06-30T01:48:58.301Z,991.65
2017-06-30T01:49:39.197Z,991.65
2017-06-30T01:50:20.079Z,991.64
2017-06-30T01:51:00.970Z,991.54
2017-06-30T01:52:59.823Z,991.59
2017-06-30T01:53:40.714Z,991.69
2017-06-30T01:54:21.603Z,991.69
2017-06-30T01:55:02.495Z,991.67
2017-06-30T01:55:43.389Z,991.69
2017-06-30T01:56:24.285Z,991.63
2017-06-30T01:57:05.170Z,991.67
2017-06-30T01:57:46.074Z,991.71
2017-06-30T01:58:26.977Z,991.71
2017-06-30T01:59:07.856Z,991.69
2017-06-30T01:59:48.744Z,991.67
2017-06-30T02:00:29.639Z,991.68
2017-06-30T02:01:10.527Z,991.75
2017-06-30T02:01:51.420Z,991.73
2017-06-30T02:02:32.313Z,991.71
2017-06-30T02:03:13.202Z,991.75
2017-06-30T02:03:54.099Z,991.76
2017-06-30T02:04:34.990Z,991.78
2017-06-30T02:05:15.900Z,991.76
2017-06-30T02:05:56.768Z,991.76
2017-06-30T02:06:37.658Z,991.77
2017-06-30T02:07:18.546Z,991.79
2017-06-30T02:07:59.435Z,991.82
2017-06-30T02:08:40.326Z,991.87
2017-06-30T02:09:21.203Z,991.81
2017-06-30T02:10:02.085Z,991.87
2017-06-30T02:10:42.979Z,991.77
2017-06-30T02:11:23.864Z,991.76
2017-06-30T02:12:04.753Z,991.82
2017-06-30T02:12:45.649Z,991.82
2017-06-30T02:13:26.553Z,991.71
2017-06-30T02:14:07.441Z,991.76
2017-06-30T02:14:48.337Z,991.89
2017-06-30T02:15:29.241Z,991.71
2017-06-30T02:16:10.119Z,991.88
2017-06-30T02:16:51.013Z,991.68
2017-06-30T02:17:31.910Z,991.84
2017-06-30T02:18:12.813Z,991.9
2017-06-30T02:18:53.704Z,991.88
2017-06-30T02:19:34.606Z,991.83
2017-06-30T02:20:15.494Z,991.84
2017-06-30T02:20:56.392Z,991.84
2017-06-30T02:21:37.275Z,991.89
2017-06-30T02:22:18.169Z,991.77
2017-06-30T02:22:59.060Z,991.77
2017-06-30T02:23:39.948Z,991.82
2017-06-30T02:24:20.843Z,991.8
2017-06-30T02:25:01.752Z,991.81
2017-06-30T02:25:42.621Z,991.81
2017-06-30T02:26:23.500Z,991.79
2017-06-30T02:27:04.395Z,991.79
2017-06-30T02:27:45.287Z,991.81
2017-06-30T02:28:26.168Z,991.82
2017-06-30T02:29:07.058Z,991.85
2017-06-30T02:29:47.950Z,991.99
2017-06-30T02:30:28.839Z,991.98
2017-06-30T02:31:09.735Z,991.92
2017-06-30T02:31:50.632Z,991.92
2017-06-30T02:32:31.521Z,991.91
2017-06-30T02:33:12.417Z,991.9
2017-06-30T02:33:53.307Z,991.98
2017-06-30T02:34:34.202Z,991.99
2017-06-30T02:35:15.087Z,991.98
2017-06-30T02:35:55.978Z,991.9
2017-06-30T02:36:36.872Z,991.97
2017-06-30T02:37:17.770Z,991.92
2017-06-30T02:37:58.665Z,991.97
2017-06-30T02:38:39.567Z,991.95
2017-06-30T02:39:20.462Z,991.95
2017-06-30T02:40:01.352Z,991.95
2017-06-30T02:40:42.245Z,991.92
2017-06-30T02:41:23.136Z,991.91
2017-06-30T02:42:04.041Z,992.02
2017-06-30T02:42:44.913Z,992.11
2017-06-30T02:43:25.811Z,992.1
2017-06-30T02:44:06.689Z,992.08
2017-06-30T02:44:47.574Z,992.11
2017-06-30T02:45:28.463Z,992.12
2017-06-30T02:46:09.404Z,992.06
2017-06-30T02:46:50.239Z,992.06
2017-06-30T02:47:31.124Z,991.99
2017-06-30T02:48:12.017Z,991.88
2017-06-30T02:48:52.907Z,991.92
2017-06-30T02:49:33.788Z,991.88
2017-06-30T02:50:14.679Z,991.79
2017-06-30T02:50:55.575Z,991.94
2017-06-30T02:51:36.462Z,991.91
2017-06-30T02:52:17.345Z,991.89
2017-06-30T02:52:58.233Z,991.95
2017-06-30T02:53:39.119Z,991.95
2017-06-30T02:54:20.004Z,992
2017-06-30T02:55:00.891Z,992.03
2017-06-30T02:55:41.787Z,991.96
2017-06-30T02:56:22.672Z,992.02
2017-06-30T02:57:03.564Z,992.12
2017-06-30T02:57:44.457Z,991.99
2017-06-30T02:58:25.520Z,992
2017-06-30T02:59:06.414Z,992.04
2017-06-30T02:59:47.305Z,992.04
2017-06-30T03:00:28.210Z,992.03
2017-06-30T03:01:09.086Z,992.15
2017-06-30T03:01:49.975Z,992.08
2017-06-30T03:02:30.863Z,992.09
2017-06-30T03:03:11.750Z,992.23
2017-06-30T03:03:52.647Z,992.2
2017-06-30T03:04:33.542Z,992.22
2017-06-30T03:05:14.425Z,992.12
2017-06-30T03:05:55.313Z,992.13
2017-06-30T03:06:36.212Z,992.16
2017-06-30T03:07:17.099Z,992.2
2017-06-30T03:07:57.995Z,992.13
2017-06-30T03:08:38.881Z,992.16
2017-06-30T03:09:19.773Z,992.16
2017-06-30T03:10:00.671Z,992.16
2017-06-30T03:10:41.565Z,992.11
2017-06-30T03:11:22.458Z,992.19
2017-06-30T03:12:03.342Z,992.08
2017-06-30T03:12:44.234Z,992.17
2017-06-30T03:13:25.127Z,992.08
2017-06-30T03:14:06.019Z,992.11
2017-06-30T03:14:46.916Z,992.08
2017-06-30T03:15:27.809Z,992.11
2017-06-30T03:16:08.710Z,992.1
2017-06-30T03:16:49.612Z,992.11
2017-06-30T03:17:30.542Z,992.1
2017-06-30T03:18:11.437Z,992.1
2017-06-30T03:18:52.317Z,992.15
2017-06-30T03:19:33.203Z,992.09
2017-06-30T03:20:14.094Z,992.17
2017-06-30T03:20:54.978Z,992.11
2017-06-30T03:21:35.866Z,992.13
2017-06-30T03:22:16.753Z,992.12
2017-06-30T03:22:57.646Z,992.17
2017-06-30T03:23:38.560Z,992.09
2017-06-30T03:24:19.450Z,992.13
2017-06-30T03:25:00.334Z,992.12
2017-06-30T03:25:41.246Z,992.11
2017-06-30T03:26:22.133Z,992.15
2017-06-30T03:27:03.025Z,992.14
2017-06-30T03:27:43.924Z,992.15
2017-06-30T03:28:24.816Z,992.18
2017-06-30T03:29:05.722Z,992.19
2017-06-30T03:29:46.632Z,992.24
2017-06-30T03:30:27.526Z,992.14
2017-06-30T03:31:08.427Z,992.22
2017-06-30T03:31:49.312Z,992.19
2017-06-30T03:32:30.208Z,992.29
2017-06-30T03:33:11.101Z,992.24
2017-06-30T03:33:52.020Z,992.25
2017-06-30T03:34:32.931Z,992.24
2017-06-30T03:36:06.176Z,992.19
2017-06-30T03:36:47.091Z,992.23
2017-06-30T03:37:27.980Z,992.25
2017-06-30T03:38:08.869Z,992.22
2017-06-30T03:38:49.758Z,992.23
2017-06-30T03:39:30.639Z,992.21
2017-06-30T03:40:11.559Z,992.22
2017-06-30T03:40:52.445Z,992.23
2017-06-30T03:41:33.336Z,992.21
2017-06-30T03:42:14.222Z,992.23
2017-06-30T03:42:55.108Z,992.23
2017-06-30T03:43:36.027Z,992.3
2017-06-30T03:44:16.880Z,992.27
2017-06-30T03:44:57.791Z,992.34
2017-06-30T03:45:38.667Z,992.26
2017-06-30T03:46:19.559Z,992.28
2017-06-30T03:47:00.455Z,992.22
2017-06-30T03:47:41.332Z,992.17
2017-06-30T03:48:22.215Z,992.29
2017-06-30T03:49:03.100Z,992.3
2017-06-30T03:49:43.997Z,992.31
2017-06-30T03:50:24.910Z,992.16
2017-06-30T03:51:05.802Z,992.26
2017-06-30T03:51:46.684Z,992.3
2017-06-30T03:52:27.580Z,992.31
2017-06-30T03:53:08.470Z,992.24
2017-06-30T03:53:49.366Z,992.26
2017-06-30T03:54:30.240Z,992.37
2017-06-30T03:55:11.138Z,992.25
2017-06-30T03:55:52.021Z,992.39
2017-06-30T03:56:32.936Z,992.22
2017-06-30T03:57:13.839Z,992.19
2017-06-30T03:57:54.726Z,992.39
2017-06-30T03:58:35.645Z,992.35
2017-06-30T03:59:16.531Z,992.32
2017-06-30T03:59:57.493Z,992.27
2017-06-30T04:00:38.380Z,992.27
2017-06-30T04:01:19.274Z,992.29
2017-06-30T04:02:00.177Z,992.43
2017-06-30T04:02:41.043Z,992.4
2017-06-30T04:03:21.941Z,992.4
2017-06-30T04:04:02.826Z,992.37
2017-06-30T04:04:43.703Z,992.32
2017-06-30T04:05:24.580Z,992.4
2017-06-30T04:06:05.474Z,992.46
2017-06-30T04:06:46.364Z,992.45
2017-06-30T04:07:27.252Z,992.41
2017-06-30T04:08:08.149Z,992.4
2017-06-30T04:08:49.040Z,992.51
2017-06-30T04:09:29.928Z,992.43
2017-06-30T04:10:10.822Z,992.51
2017-06-30T04:10:51.710Z,992.51
2017-06-30T04:11:32.589Z,992.55
2017-06-30T04:12:13.512Z,992.52
2017-06-30T04:12:54.400Z,992.5
2017-06-30T04:13:35.294Z,992.58
2017-06-30T04:14:16.204Z,992.53
2017-06-30T04:14:57.088Z,992.68
2017-06-30T04:15:38.040Z,992.58
2017-06-30T04:16:18.848Z,992.64
2017-06-30T04:16:59.738Z,992.68
2017-06-30T04:17:40.625Z,992.69
2017-06-30T04:18:21.512Z,992.69
2017-06-30T04:19:02.406Z,992.68
2017-06-30T04:19:43.296Z,992.69
2017-06-30T04:20:24.185Z,992.7
2017-06-30T04:21:05.082Z,992.64
2017-06-30T04:21:45.973Z,992.68
2017-06-30T04:22:26.860Z,992.77
2017-06-30T04:23:07.769Z,992.74
2017-06-30T04:23:48.654Z,992.69
2017-06-30T04:24:29.549Z,992.71
2017-06-30T04:25:10.438Z,992.73
2017-06-30T04:25:51.325Z,992.75
2017-06-30T04:26:32.213Z,992.67
2017-06-30T04:27:13.112Z,992.74
2017-06-30T04:27:54.000Z,992.76
2017-06-30T04:28:34.886Z,992.75
2017-06-30T04:29:15.779Z,992.83
2017-06-30T04:29:56.677Z,992.81
2017-06-30T04:30:37.562Z,992.78
2017-06-30T04:31:18.457Z,992.78
2017-06-30T04:31:59.350Z,992.84
2017-06-30T04:32:40.243Z,992.75
2017-06-30T04:33:21.145Z,992.89
2017-06-30T04:34:02.048Z,992.93
2017-06-30T04:34:42.943Z,992.89
2017-06-30T04:35:23.826Z,992.87
2017-06-30T04:36:04.719Z,992.95
2017-06-30T04:36:45.620Z,992.81
2017-06-30T04:37:26.506Z,992.92
2017-06-30T04:38:07.393Z,992.95
2017-06-30T04:38:48.296Z,992.97
2017-06-30T04:39:29.185Z,992.96
2017-06-30T04:40:10.077Z,992.92
2017-06-30T04:40:50.961Z,992.95
2017-06-30T04:41:31.846Z,992.94
2017-06-30T04:42:12.726Z,992.97
2017-06-30T04:42:53.617Z,992.99
2017-06-30T04:43:34.510Z,992.94
2017-06-30T04:44:15.395Z,993.01
2017-06-30T04:44:56.275Z,992.99
2017-06-30T04:45:37.180Z,992.99
2017-06-30T04:46:18.062Z,993.02
2017-06-30T04:46:58.945Z,992.81
2017-06-30T04:47:39.821Z,993.01
2017-06-30T04:48:20.704Z,992.97
2017-06-30T04:49:01.595Z,992.96
2017-06-30T04:49:42.487Z,993.1
2017-06-30T04:50:23.387Z,993.1
2017-06-30T04:51:04.276Z,993.04
2017-06-30T04:51:45.166Z,993.06
2017-06-30T04:52:26.066Z,993.1
2017-06-30T04:53:06.961Z,993.02
2017-06-30T04:53:47.855Z,993
2017-06-30T04:54:28.760Z,993.1
2017-06-30T04:55:09.647Z,993.1
2017-06-30T04:55:50.546Z,993.11
2017-06-30T04:56:31.433Z,993.03
2017-06-30T04:57:12.327Z,993.05
2017-06-30T04:57:53.221Z,993.07
2017-06-30T04:58:34.109Z,993.06
2017-06-30T04:59:14.988Z,993.1
2017-06-30T04:59:55.882Z,993.07
2017-06-30T05:00:36.790Z,993.11
2017-06-30T05:01:17.671Z,993.08
2017-06-30T05:01:58.578Z,993.09
2017-06-30T05:02:39.461Z,993.14
2017-06-30T05:03:20.344Z,993.13
2017-06-30T05:04:01.266Z,993.16
2017-06-30T05:04:42.139Z,993.17
2017-06-30T05:05:23.035Z,993.14
2017-06-30T05:06:03.953Z,993.17
2017-06-30T05:06:44.833Z,993.17
2017-06-30T05:07:25.722Z,993.2
2017-06-30T05:08:06.732Z,993.24
2017-06-30T05:08:47.648Z,993.23
2017-06-30T05:09:28.540Z,993.19
2017-06-30T05:10:09.430Z,993.27
2017-06-30T05:10:50.374Z,993.23
2017-06-30T05:11:31.263Z,993.29
2017-06-30T05:12:12.170Z,993.27
2017-06-30T05:12:53.069Z,993.31
2017-06-30T05:13:33.956Z,993.2
2017-06-30T05:14:14.852Z,993.32
2017-06-30T05:14:55.718Z,993.28
2017-06-30T05:15:36.614Z,993.31
2017-06-30T05:16:17.514Z,993.42
2017-06-30T05:16:58.402Z,993.3
2017-06-30T05:17:39.275Z,993.29
2017-06-30T05:18:20.172Z,993.34
2017-06-30T05:19:01.063Z,993.27
2017-06-30T05:19:41.937Z,993.31
2017-06-30T05:20:22.827Z,993.37
2017-06-30T05:21:03.721Z,993.35
2017-06-30T05:21:44.605Z,993.27
2017-06-30T05:22:25.480Z,993.37
2017-06-30T05:23:06.365Z,993.31
2017-06-30T05:23:47.266Z,993.31
2017-06-30T05:24:28.148Z,993.37
2017-06-30T05:25:09.034Z,993.27
2017-06-30T05:25:49.938Z,993.31
2017-06-30T05:26:30.827Z,993.41
2017-06-30T05:27:11.718Z,993.23
2017-06-30T05:27:52.618Z,993.32
2017-06-30T05:28:33.511Z,993.37
2017-06-30T05:29:14.401Z,993.36
2017-06-30T05:29:55.296Z,993.42
2017-06-30T05:30:36.181Z,993.47
2017-06-30T05:31:17.065Z,993.43
2017-06-30T05:31:57.956Z,993.42
2017-06-30T05:32:38.843Z,993.4
2017-06-30T05:33:19.804Z,993.48
2017-06-30T05:34:00.698Z,993.44
2017-06-30T05:34:41.590Z,993.47
2017-06-30T05:35:22.484Z,993.47
2017-06-30T05:36:03.363Z,993.5
2017-06-30T05:36:44.259Z,993.55
2017-06-30T05:37:25.156Z,993.59
2017-06-30T05:38:06.039Z,993.66
2017-06-30T05:38:46.921Z,993.5
2017-06-30T05:39:27.813Z,993.57
2017-06-30T05:40:08.699Z,993.69
2017-06-30T05:40:49.586Z,993.72
2017-06-30T05:41:30.491Z,993.65
2017-06-30T05:42:11.376Z,993.65
2017-06-30T05:42:52.258Z,993.65
2017-06-30T05:43:33.162Z,993.67
2017-06-30T05:44:14.059Z,993.7
2017-06-30T05:44:54.955Z,993.71
2017-06-30T05:45:35.847Z,993.72
2017-06-30T05:46:16.728Z,993.66
2017-06-30T05:46:57.618Z,993.77
2017-06-30T05:47:38.513Z,993.76
2017-06-30T05:48:19.391Z,993.75
2017-06-30T05:49:00.286Z,993.8
2017-06-30T05:49:41.175Z,993.8
2017-06-30T05:50:22.061Z,993.64
2017-06-30T05:51:02.945Z,993.79
2017-06-30T05:51:43.852Z,993.78
2017-06-30T05:52:24.738Z,993.99
2017-06-30T05:53:05.627Z,993.81
2017-06-30T05:53:46.523Z,993.92
2017-06-30T05:54:27.414Z,993.85
2017-06-30T05:55:08.297Z,993.91
2017-06-30T05:55:49.190Z,993.99
2017-06-30T05:56:30.077Z,993.82
2017-06-30T05:57:10.991Z,993.92
2017-06-30T05:57:51.875Z,993.92
2017-06-30T05:58:32.762Z,993.93
2017-06-30T05:59:13.646Z,993.95
2017-06-30T05:59:54.557Z,994.01
2017-06-30T06:00:35.440Z,993.99
2017-06-30T06:01:16.336Z,994
2017-06-30T06:01:57.243Z,993.89
2017-06-30T06:02:38.133Z,994.08
2017-06-30T06:03:19.016Z,994.05
2017-06-30T06:03:59.918Z,994.02
2017-06-30T06:04:40.806Z,994.03
2017-06-30T06:05:21.706Z,994
2017-06-30T06:06:02.598Z,994.05
2017-06-30T06:06:43.483Z,994.11
2017-06-30T06:07:24.376Z,994.05
2017-06-30T06:08:05.260Z,994.08
2017-06-30T06:10:20.014Z,994.14
2017-06-30T06:11:00.895Z,994.11
2017-06-30T06:11:41.765Z,994.2
2017-06-30T06:12:22.661Z,994.2
2017-06-30T06:13:03.525Z,994.21
2017-06-30T06:13:44.414Z,994.2
2017-06-30T06:14:25.309Z,994.21
2017-06-30T06:15:12.837Z,994.23
2017-06-30T06:15:53.732Z,994.2
2017-06-30T06:17:52.283Z,994.17
2017-06-30T06:18:33.168Z,994.34
2017-06-30T06:19:14.059Z,994.32
2017-06-30T06:19:54.946Z,994.33
2017-06-30T06:20:35.839Z,994.34
2017-06-30T06:21:16.725Z,994.44
2017-06-30T06:21:57.604Z,994.39
2017-06-30T06:22:38.490Z,994.44
2017-06-30T06:25:21.988Z,994.42
2017-06-30T06:27:51.117Z,994.4
2017-06-30T06:28:31.996Z,994.46
2017-06-30T06:30:45.766Z,994.52
2017-06-30T06:31:26.652Z,994.48
2017-06-30T06:33:40.391Z,994.57
2017-06-30T06:34:36.259Z,994.44
2017-06-30T06:36:34.833Z,994.58
2017-06-30T06:37:15.723Z,994.6
2017-06-30T06:39:45.418Z,994.62
2017-06-30T06:42:28.915Z,994.65
2017-06-30T06:44:58.921Z,994.65
2017-06-30T06:45:38.941Z,994.66
2017-06-30T06:46:19.830Z,994.78
2017-06-30T06:47:00.757Z,994.78
2017-06-30T06:47:41.585Z,994.68
2017-06-30T06:48:22.473Z,994.72
2017-06-30T06:49:03.362Z,994.8
2017-06-30T06:49:45.098Z,994.71
2017-06-30T06:50:25.983Z,994.81
2017-06-30T06:51:06.877Z,994.74
2017-06-30T06:53:45.899Z,994.81
2017-06-30T06:54:26.802Z,994.71
2017-06-30T06:55:07.681Z,994.76
2017-06-30T06:55:48.577Z,994.72
2017-06-30T06:56:29.476Z,994.79
2017-06-30T06:57:10.350Z,994.82
2017-06-30T06:57:51.252Z,994.86
2017-06-30T07:00:10.170Z,994.88
2017-06-30T07:00:52.850Z,994.91
2017-06-30T07:02:54.080Z,994.91
2017-06-30T07:03:34.982Z,994.89
2017-06-30T07:04:15.866Z,994.91
2017-06-30T07:04:56.753Z,994.87
2017-06-30T07:06:55.315Z,994.9
2017-06-30T07:07:36.203Z,994.92
2017-06-30T07:09:49.961Z,994.97
2017-06-30T07:10:30.851Z,994.98
2017-06-30T07:11:11.741Z,995.06
2017-06-30T07:11:52.647Z,995.05
2017-06-30T07:14:30.710Z,995.02
2017-06-30T07:16:44.463Z,995.09
2017-06-30T07:17:25.359Z,995.09
2017-06-30T07:18:18.652Z,995.03
2017-06-30T07:18:59.536Z,995.12
2017-06-30T07:19:40.680Z,995.14
2017-06-30T07:20:21.572Z,995.12
2017-06-30T07:21:02.466Z,995.19
2017-06-30T07:22:56.038Z,995.15
2017-06-30T07:23:37.452Z,995.17
2017-06-30T07:24:19.661Z,995.2
2017-06-30T07:25:00.616Z,995.21
2017-06-30T07:25:42.054Z,995.22
2017-06-30T07:26:23.021Z,995.18
2017-06-30T07:27:03.996Z,995.22
2017-06-30T07:27:44.893Z,995.15
2017-06-30T07:28:25.810Z,995.24
2017-06-30T07:29:06.715Z,995.17
2017-06-30T07:29:47.826Z,995.2
2017-06-30T07:30:29.459Z,995.22
2017-06-30T07:32:31.586Z,995.2
2017-06-30T07:33:13.508Z,995.2
2017-06-30T07:33:54.407Z,995.26
2017-06-30T07:34:35.285Z,995.25
2017-06-30T07:35:16.156Z,995.24
2017-06-30T07:35:57.024Z,995.3
2017-06-30T07:36:38.683Z,995.23
2017-06-30T07:37:21.930Z,995.23
2017-06-30T07:38:02.819Z,995.3
2017-06-30T07:38:43.710Z,995.34
2017-06-30T07:39:24.595Z,995.3
2017-06-30T07:40:05.475Z,995.21
2017-06-30T07:40:46.365Z,995.33
2017-06-30T07:41:27.255Z,995.28
2017-06-30T07:42:08.147Z,995.29
2017-06-30T07:42:49.027Z,995.26
2017-06-30T07:43:29.923Z,995.31
2017-06-30T07:44:10.800Z,995.28
2017-06-30T07:44:51.662Z,995.27
2017-06-30T07:45:32.544Z,995.31
2017-06-30T07:46:13.425Z,995.3
2017-06-30T07:46:54.299Z,995.29
2017-06-30T07:47:35.168Z,995.33
2017-06-30T07:48:16.054Z,995.38
2017-06-30T07:48:56.925Z,995.26
2017-06-30T07:49:37.856Z,995.29
2017-06-30T07:50:18.771Z,995.35
2017-06-30T07:50:59.642Z,995.41
2017-06-30T07:51:40.515Z,995.43
2017-06-30T07:52:21.408Z,995.31
2017-06-30T07:53:02.310Z,995.39
2017-06-30T07:53:43.265Z,995.35
2017-06-30T07:54:25.509Z,995.37
2017-06-30T07:55:06.681Z,995.36
2017-06-30T07:55:48.267Z,995.39
2017-06-30T07:56:29.915Z,995.35
2017-06-30T07:57:12.411Z,995.39
2017-06-30T07:57:53.871Z,995.38
2017-06-30T07:58:35.447Z,995.47
2017-06-30T07:59:16.186Z,995.37
2017-06-30T07:59:57.064Z,995.3
2017-06-30T08:00:37.947Z,995.52
2017-06-30T08:01:18.836Z,995.51
2017-06-30T08:02:00.303Z,995.49
2017-06-30T08:03:59.264Z,995.49
2017-06-30T08:04:46.968Z,995.44
2017-06-30T08:05:27.859Z,995.49
2017-06-30T08:06:08.751Z,995.49
2017-06-30T08:08:22.504Z,995.47
2017-06-30T08:09:03.400Z,995.46
2017-06-30T08:09:44.282Z,995.43
2017-06-30T08:10:25.167Z,995.54
2017-06-30T08:12:54.315Z,995.44
2017-06-30T08:13:35.214Z,995.51
2017-06-30T08:14:16.085Z,995.44
2017-06-30T08:14:56.971Z,995.54
2017-06-30T08:15:37.873Z,995.5
2017-06-30T08:16:18.746Z,995.47
2017-06-30T08:18:32.539Z,995.53
2017-06-30T08:19:13.472Z,995.51
2017-06-30T08:20:01.054Z,995.52
2017-06-30T08:22:40.857Z,995.52
2017-06-30T08:23:21.765Z,995.54
2017-06-30T08:24:02.652Z,995.59
2017-06-30T08:24:43.543Z,995.48
2017-06-30T08:27:12.720Z,995.53
2017-06-30T08:27:53.617Z,995.56
2017-06-30T08:28:34.499Z,995.47
2017-06-30T08:29:16.094Z,995.6
2017-06-30T08:31:16.527Z,995.6
2017-06-30T08:31:57.422Z,995.57
2017-06-30T08:32:38.300Z,995.45
2017-06-30T08:33:19.186Z,995.56
2017-06-30T08:34:00.078Z,995.61
2017-06-30T08:34:40.967Z,995.61
2017-06-30T08:35:21.852Z,995.58
2017-06-30T08:36:02.751Z,995.64
2017-06-30T08:36:43.641Z,995.57
2017-06-30T08:37:24.525Z,995.72
2017-06-30T08:38:05.431Z,995.63
2017-06-30T08:38:46.322Z,995.72
2017-06-30T08:39:27.218Z,995.65
2017-06-30T08:40:08.099Z,995.69
2017-06-30T08:40:49.892Z,995.76
2017-06-30T08:41:30.768Z,995.58
2017-06-30T08:42:11.645Z,995.64
2017-06-30T08:42:52.535Z,995.73
2017-06-30T08:43:35.065Z,995.73
2017-06-30T08:44:17.843Z,995.72
2017-06-30T08:44:58.732Z,995.66
2017-06-30T08:45:39.619Z,995.71
2017-06-30T08:46:20.554Z,995.71
2017-06-30T08:47:01.416Z,995.8
2017-06-30T08:47:42.303Z,995.77
2017-06-30T08:48:23.197Z,995.81
2017-06-30T08:49:04.089Z,995.77
2017-06-30T08:49:44.983Z,995.75
2017-06-30T08:50:25.908Z,995.8
2017-06-30T08:51:06.798Z,995.75
2017-06-30T08:51:47.689Z,995.8
2017-06-30T08:52:28.583Z,995.66
2017-06-30T08:53:09.465Z,995.8
2017-06-30T08:53:50.364Z,995.84
2017-06-30T08:54:31.267Z,995.78
2017-06-30T08:55:12.180Z,995.88
2017-06-30T08:55:53.077Z,995.85
2017-06-30T08:56:33.971Z,995.9
2017-06-30T08:57:14.888Z,995.89
2017-06-30T08:57:55.771Z,995.85
2017-06-30T08:58:36.660Z,995.82
2017-06-30T08:59:17.592Z,995.89
2017-06-30T08:59:58.438Z,995.87
2017-06-30T09:00:39.319Z,995.84
2017-06-30T09:01:20.216Z,995.84
2017-06-30T09:02:02.697Z,995.91
2017-06-30T09:02:43.584Z,995.93
2017-06-30T09:03:24.476Z,995.94
2017-06-30T09:04:05.377Z,995.98
2017-06-30T09:04:46.254Z,995.94
2017-06-30T09:05:27.152Z,995.97
2017-06-30T09:06:08.056Z,995.98
2017-06-30T09:06:48.966Z,995.91
2017-06-30T09:07:31.361Z,996
2017-06-30T09:08:12.238Z,996.07
2017-06-30T09:08:53.135Z,996.03
2017-06-30T09:09:34.015Z,996.03
2017-06-30T09:10:14.918Z,996.14
2017-06-30T09:10:55.825Z,996.14
2017-06-30T09:11:36.712Z,996.07
2017-06-30T09:12:17.589Z,996.08
2017-06-30T09:12:58.480Z,996.06
2017-06-30T09:13:39.377Z,996.13
2017-06-30T09:14:20.271Z,996.11
2017-06-30T09:15:01.175Z,996.14
2017-06-30T09:15:42.079Z,996.12
2017-06-30T09:16:22.968Z,996.1
2017-06-30T09:17:03.875Z,996.17
2017-06-30T09:17:44.820Z,996.1
2017-06-30T09:18:25.717Z,996.22
2017-06-30T09:19:06.611Z,996.17